SBNF

Ministro Victor Konder International Airport

Navegantes, Brazil
TAF SBNF 201530Z 2018/2118 25007KT 9999 SCT030 TX30/2018Z TN18/2109Z PROB40 2106/2110 0800 FG BKN002 BECMG 2110/2112 34009KT FEW030 RMK PEB
Issued Valid From Valid To
Apr-20 @ 15:30 UTC
(3 hours ago)
Apr-20 @ 18:00 UTC
(32 minutes ago)
Apr-21 @ 18:00 UTC
(in 23 hours)
Apr-20 @ 18:00 to Apr-21 @ 10:00
TAF SBNF 201530Z 2018/2118 25007KT 9999 SCT030 TX30/2018Z TN18/2109Z
Wind Visibility Clouds
250° at 7 knots 10,000+ meters
  • Scattered at 3,000' AGL
Probable  (Probability 40%) Apr-21 @ 06:00 to Apr-21 @ 10:00
PROB40 2106/2110 0800 FG BKN002
Visibility Clouds Conditions
805 meters
  • Broken at 200' AGL
  • Fog
Becoming Apr-21 @ 10:00 to Apr-21 @ 18:00
BECMG 2110/2112 34009KT FEW030 RMK PEB
Wind Visibility Clouds
340° at 9 knots 10,000+ meters
  • Few at 3,000' AGL
TAF SBNF 201530Z 2018/2118 25007KT 9999 SCT030 TX30/2018Z TN18/2109Z PROB40 2106/2110 0800 FG BKN002 BECMG 2110/2112 34009KT FEW030 RMK PEB
Issued Apr-20 @ 15:30 UTC
(3 hours ago)
Valid From Apr-20 @ 18:00 UTC
(32 minutes ago)
Valid To Apr-21 @ 18:00 UTC
(in 23 hours)
Apr-20 @ 18:00 - Apr-21 @ 10:00
Wind Visibility
250° at 7 knots 10,000+ meters
Clouds
  • Scattered at 3,000' AGL
Probability 40% Probable Apr-21 @ 06:00 - Apr-21 @ 10:00
Clouds
  • Broken at 200' AGL
Conditions
  • Fog
Becoming Apr-21 @ 10:00 - Apr-21 @ 18:00
Wind Visibility
340° at 9 knots 10,000+ meters
Clouds
  • Few at 3,000' AGL